createdAt,value
2023-04-08T00:00:59.747Z,44.04
2023-04-08T00:03:27.820Z,43.95
2023-04-08T00:05:58.426Z,43.75
2023-04-08T00:08:27.745Z,43.82
2023-04-08T00:10:55.635Z,43.70
2023-04-08T00:13:23.633Z,43.61
2023-04-08T00:15:51.592Z,43.47
2023-04-08T00:18:19.585Z,43.58
2023-04-08T00:20:47.632Z,43.46
2023-04-08T00:23:15.616Z,43.37
2023-04-08T00:25:46.287Z,43.49
2023-04-08T00:28:14.235Z,43.34
2023-04-08T00:30:42.176Z,43.36
2023-04-08T00:33:10.250Z,43.23
2023-04-08T00:35:38.296Z,43.11
2023-04-08T00:38:08.088Z,43.11
2023-04-08T00:40:36.351Z,43.23
2023-04-08T00:43:05.632Z,43.03
2023-04-08T00:45:34.927Z,42.93
2023-04-08T00:48:03.559Z,42.85
2023-04-08T00:50:31.556Z,42.81
2023-04-08T00:52:59.498Z,42.76
2023-04-08T00:55:27.467Z,42.81
2023-04-08T00:57:58.000Z,42.67
2023-04-08T01:00:27.614Z,42.76
2023-04-08T01:03:07.061Z,42.55
2023-04-08T01:05:47.105Z,42.61
2023-04-08T01:08:16.646Z,42.62
2023-04-08T01:10:49.718Z,42.63
2023-04-08T01:13:20.034Z,42.53
2023-04-08T01:15:50.027Z,42.58
2023-04-08T01:18:18.681Z,42.52
2023-04-08T01:20:47.798Z,42.52
2023-04-08T01:23:24.248Z,42.38
2023-04-08T01:25:56.636Z,42.46
2023-04-08T01:28:28.169Z,42.52
2023-04-08T01:30:58.858Z,42.25
2023-04-08T01:33:28.693Z,42.28
2023-04-08T01:35:58.812Z,42.32
2023-04-08T01:38:28.190Z,42.17
2023-04-08T01:40:58.698Z,42.28
2023-04-08T01:43:28.281Z,42.26
2023-04-08T01:45:58.324Z,42.20
2023-04-08T01:48:26.766Z,42.02
2023-04-08T01:50:55.890Z,42.26
2023-04-08T01:53:24.303Z,42.14
2023-04-08T01:55:59.338Z,42.30
2023-04-08T01:58:33.100Z,41.96
2023-04-08T02:01:01.470Z,42.03
2023-04-08T02:03:32.371Z,41.89
2023-04-08T02:06:01.135Z,41.83
2023-04-08T02:08:31.653Z,41.92
2023-04-08T02:11:01.218Z,41.84
2023-04-08T02:13:33.080Z,41.83
2023-04-08T02:16:07.915Z,41.69
2023-04-08T02:18:38.665Z,41.78
2023-04-08T02:21:12.606Z,41.80
2023-04-08T02:23:47.136Z,41.65
2023-04-08T02:26:19.040Z,41.62
2023-04-08T02:28:50.510Z,41.48
2023-04-08T02:31:20.573Z,41.66
2023-04-08T02:33:52.917Z,41.72
2023-04-08T02:36:21.272Z,41.57
2023-04-08T02:38:50.247Z,41.77
2023-04-08T02:41:19.703Z,41.56
2023-04-08T02:43:48.070Z,41.54
2023-04-08T02:46:18.004Z,41.57
2023-04-08T02:48:45.921Z,41.57
2023-04-08T02:51:13.955Z,41.57
2023-04-08T02:53:41.897Z,41.56
2023-04-08T02:56:11.521Z,41.56
2023-04-08T02:58:41.070Z,41.58
2023-04-08T03:01:10.270Z,41.36
2023-04-08T03:03:38.334Z,41.45
2023-04-08T03:06:06.431Z,41.39
2023-04-08T03:08:34.436Z,41.30
2023-04-08T03:11:02.374Z,41.35
2023-04-08T03:13:31.788Z,41.39
2023-04-08T03:16:01.230Z,41.40
2023-04-08T03:18:31.767Z,41.19
2023-04-08T03:20:59.681Z,41.25
2023-04-08T03:23:27.668Z,41.08
2023-04-08T03:25:55.603Z,41.25
2023-04-08T03:28:23.514Z,41.12
2023-04-08T03:30:51.553Z,41.21
2023-04-08T03:33:23.411Z,41.10
2023-04-08T03:35:51.470Z,41.10
2023-04-08T03:38:19.470Z,41.07
2023-04-08T03:40:47.528Z,41.39
2023-04-08T03:43:16.073Z,40.94
2023-04-08T03:45:44.028Z,40.67
2023-04-08T03:48:12.000Z,40.71
2023-04-08T03:50:43.919Z,40.52
2023-04-08T03:53:12.924Z,40.57
2023-04-08T03:55:40.853Z,40.47
2023-04-08T03:58:10.440Z,40.25
2023-04-08T04:00:38.500Z,40.27
2023-04-08T04:03:06.619Z,40.28
2023-04-08T04:05:34.678Z,40.36
2023-04-08T04:08:03.954Z,40.46
2023-04-08T04:10:31.959Z,40.11
2023-04-08T04:12:59.883Z,40.22
2023-04-08T04:15:27.882Z,40.03
2023-04-08T04:17:55.934Z,40.10
2023-04-08T04:20:25.983Z,39.93
2023-04-08T04:22:54.315Z,40.11
2023-04-08T04:25:23.926Z,39.81
2023-04-08T04:27:51.880Z,39.74
2023-04-08T04:30:19.825Z,39.82
2023-04-08T04:32:47.824Z,39.62
2023-04-08T04:35:16.002Z,39.61
2023-04-08T04:37:43.967Z,39.71
2023-04-08T04:40:12.447Z,39.62
2023-04-08T04:42:41.759Z,39.67
2023-04-08T04:45:11.109Z,39.52
2023-04-08T04:47:39.123Z,39.47
2023-04-08T04:50:08.107Z,39.32
2023-04-08T04:52:37.215Z,39.43
2023-04-08T04:55:05.737Z,39.33
2023-04-08T04:57:33.754Z,39.45
2023-04-08T05:00:05.141Z,39.33
2023-04-08T05:02:33.646Z,39.30
2023-04-08T05:05:01.761Z,39.47
2023-04-08T05:07:29.777Z,39.28
2023-04-08T05:09:57.773Z,39.04
2023-04-08T05:12:25.809Z,39.25
2023-04-08T05:14:53.791Z,39.21
2023-04-08T05:17:23.128Z,39.20
2023-04-08T05:19:52.009Z,39.15
2023-04-08T05:22:20.120Z,39.03
2023-04-08T05:24:48.191Z,38.97
2023-04-08T05:27:16.164Z,38.93
2023-04-08T05:29:44.122Z,38.92
2023-04-08T05:32:12.221Z,38.92
2023-04-08T05:34:43.773Z,38.98
2023-04-08T05:37:14.795Z,38.90
2023-04-08T05:39:46.303Z,38.77
2023-04-08T05:42:14.660Z,38.93
2023-04-08T05:44:43.955Z,38.85
2023-04-08T05:47:12.092Z,38.76
2023-04-08T05:49:44.037Z,38.79
2023-04-08T05:52:12.028Z,38.70
2023-04-08T05:54:40.205Z,38.63
2023-04-08T05:57:10.289Z,38.73
2023-04-08T05:59:41.502Z,38.58
2023-04-08T06:02:09.574Z,38.65
2023-04-08T06:04:37.682Z,38.58
2023-04-08T06:07:08.476Z,38.66
2023-04-08T06:09:37.878Z,38.76
2023-04-08T06:12:06.531Z,38.70
2023-04-08T06:14:34.494Z,38.71
2023-04-08T06:17:02.426Z,38.74
2023-04-08T06:19:30.401Z,38.58
2023-04-08T06:21:59.078Z,38.73
2023-04-08T06:24:29.502Z,38.66
2023-04-08T06:26:57.734Z,38.63
2023-04-08T06:29:25.720Z,38.49
2023-04-08T06:31:53.692Z,38.36
2023-04-08T06:34:21.618Z,38.54
2023-04-08T06:36:50.333Z,38.45
2023-04-08T06:39:19.481Z,38.39
2023-04-08T06:41:48.782Z,38.13
2023-04-08T06:44:19.457Z,38.18
2023-04-08T06:46:47.778Z,38.18
2023-04-08T06:49:15.886Z,38.05
2023-04-08T06:51:43.863Z,38.02
2023-04-08T06:54:11.929Z,37.87
2023-04-08T06:56:39.936Z,37.94
2023-04-08T06:59:09.352Z,37.88
2023-04-08T07:01:37.394Z,37.90
2023-04-08T07:04:05.419Z,37.83
2023-04-08T07:06:33.456Z,37.73
2023-04-08T07:09:04.753Z,37.72
2023-04-08T07:11:35.609Z,37.72
2023-04-08T07:14:03.802Z,37.64
2023-04-08T07:16:33.196Z,37.60
2023-04-08T07:19:02.003Z,37.59
2023-04-08T07:21:31.206Z,37.64
2023-04-08T07:23:59.177Z,37.72
2023-04-08T07:26:30.111Z,37.49
2023-04-08T07:28:58.039Z,37.76
2023-04-08T07:31:26.049Z,37.55
2023-04-08T07:33:55.429Z,37.82
2023-04-08T07:36:23.357Z,37.71
2023-04-08T07:38:51.772Z,37.45
2023-04-08T07:41:19.887Z,37.24
2023-04-08T07:43:47.866Z,37.28
2023-04-08T07:46:16.186Z,37.43
2023-04-08T07:48:44.229Z,37.45
2023-04-08T07:51:13.628Z,37.43
2023-04-08T07:53:41.590Z,37.58
2023-04-08T07:56:13.511Z,37.51
2023-04-08T07:58:42.073Z,37.40
2023-04-08T08:01:17.996Z,37.43
2023-04-08T08:03:47.657Z,37.10
2023-04-08T08:06:17.674Z,37.03
2023-04-08T08:08:45.870Z,37.04
2023-04-08T08:11:16.439Z,37.15
2023-04-08T08:13:44.415Z,37.44
2023-04-08T08:16:14.990Z,40.10
2023-04-08T08:18:45.787Z,39.10
2023-04-08T08:21:13.888Z,38.83
2023-04-08T08:23:43.224Z,38.85
2023-04-08T08:26:11.766Z,38.80
2023-04-08T08:28:41.862Z,38.75
2023-04-08T08:31:09.845Z,38.50
2023-04-08T08:33:37.841Z,38.60
2023-04-08T08:36:07.076Z,38.59
2023-04-08T08:38:35.195Z,38.41
2023-04-08T08:41:08.557Z,38.56
2023-04-08T08:43:36.707Z,39.83
2023-04-08T08:46:04.696Z,39.61
2023-04-08T08:48:34.090Z,39.29
2023-04-08T08:51:09.630Z,39.25
2023-04-08T08:53:37.900Z,39.23
2023-04-08T08:58:41.182Z,39.00
2023-04-08T09:01:31.684Z,38.97
2023-04-08T09:04:14.112Z,39.12
2023-04-08T09:06:42.671Z,39.48
2023-04-08T09:09:14.004Z,39.63
2023-04-08T09:11:46.184Z,40.18
2023-04-08T09:14:20.401Z,42.21
2023-04-08T09:16:48.483Z,40.98
2023-04-08T09:19:16.537Z,40.52
2023-04-08T09:21:45.040Z,40.25
2023-04-08T09:24:30.307Z,40.12
2023-04-08T09:26:59.733Z,40.00
2023-04-08T09:29:31.175Z,40.20
2023-04-08T09:32:02.810Z,40.06
2023-04-08T09:34:34.169Z,40.12
2023-04-08T09:37:02.537Z,39.96
2023-04-08T09:39:30.814Z,40.08
2023-04-08T09:42:02.000Z,40.17
2023-04-08T09:44:31.268Z,40.11
2023-04-08T09:47:08.083Z,40.12
2023-04-08T09:49:39.864Z,40.25
2023-04-08T09:52:09.715Z,40.24
2023-04-08T09:54:45.614Z,40.47
2023-04-08T09:57:23.783Z,40.50
2023-04-08T10:00:04.165Z,40.63
2023-04-08T10:02:42.128Z,40.93
2023-04-08T10:05:13.968Z,40.99
2023-04-08T10:07:45.318Z,40.89
2023-04-08T10:10:13.408Z,40.81
2023-04-08T10:12:44.838Z,40.72
2023-04-08T10:15:29.636Z,40.52
2023-04-08T10:18:19.314Z,40.63
2023-04-08T10:20:49.287Z,40.54
2023-04-08T10:23:21.192Z,40.69
2023-04-08T10:25:50.520Z,40.52
2023-04-08T10:28:29.906Z,40.42
2023-04-08T10:30:58.709Z,40.65
2023-04-08T10:33:34.590Z,40.30
2023-04-08T10:36:11.645Z,40.75
2023-04-08T10:38:40.145Z,40.83
2023-04-08T10:41:08.430Z,40.85
2023-04-08T10:43:38.409Z,40.94
2023-04-08T10:46:06.918Z,40.77
2023-04-08T10:48:34.974Z,42.44
2023-04-08T10:51:04.917Z,43.79
2023-04-08T10:53:34.700Z,42.97
2023-04-08T10:56:07.565Z,42.15
2023-04-08T10:58:37.500Z,42.13
2023-04-08T11:01:07.821Z,42.08
2023-04-08T11:03:37.612Z,42.58
2023-04-08T11:06:07.585Z,41.41
2023-04-08T11:08:37.766Z,41.50
2023-04-08T11:11:09.231Z,41.00
2023-04-08T11:13:46.210Z,40.78
2023-04-08T11:16:20.571Z,40.84
2023-04-08T11:18:49.575Z,40.68
2023-04-08T11:21:18.276Z,40.98
2023-04-08T11:23:46.766Z,40.46
2023-04-08T11:26:16.371Z,40.05
2023-04-08T11:28:46.619Z,40.00
2023-04-08T11:31:14.925Z,39.99
2023-04-08T11:33:47.648Z,39.68
2023-04-08T11:36:16.022Z,39.64
2023-04-08T11:38:44.109Z,39.72
2023-04-08T11:41:12.317Z,39.64
2023-04-08T11:43:41.060Z,39.20
2023-04-08T11:46:12.614Z,39.54
2023-04-08T11:48:40.749Z,39.30
2023-04-08T11:51:10.040Z,39.15
2023-04-08T11:53:38.560Z,39.34
2023-04-08T11:56:19.418Z,39.31
2023-04-08T11:58:47.808Z,39.04
2023-04-08T12:01:17.185Z,38.88
2023-04-08T12:03:59.465Z,39.00
2023-04-08T12:06:27.744Z,38.98
2023-04-08T12:08:56.758Z,39.04
2023-04-08T12:11:25.197Z,39.72
2023-04-08T12:13:53.774Z,39.93
2023-04-08T12:16:23.448Z,38.98
2023-04-08T12:18:51.467Z,38.46
2023-04-08T12:21:19.478Z,38.64
2023-04-08T12:23:47.555Z,38.72
2023-04-08T12:26:15.647Z,39.23
2023-04-08T12:28:43.662Z,38.99
2023-04-08T12:31:11.626Z,38.56
2023-04-08T12:33:41.116Z,38.59
2023-04-08T12:36:10.085Z,38.47
2023-04-08T12:38:39.543Z,38.38
2023-04-08T12:41:07.797Z,38.50
2023-04-08T12:43:35.810Z,37.90
2023-04-08T12:46:03.721Z,37.65
2023-04-08T12:48:32.103Z,37.52
2023-04-08T12:51:01.417Z,37.98
2023-04-08T12:53:29.387Z,38.15
2023-04-08T12:55:58.066Z,37.97
2023-04-08T12:58:26.218Z,38.12
2023-04-08T13:00:54.211Z,38.58
2023-04-08T13:03:22.411Z,38.46
2023-04-08T13:05:50.860Z,38.38
2023-04-08T13:08:20.180Z,38.27
2023-04-08T13:10:48.413Z,38.30
2023-04-08T13:13:16.294Z,38.32
2023-04-08T13:15:44.841Z,38.32
2023-04-08T13:18:12.888Z,38.23
2023-04-08T13:20:40.978Z,38.35
2023-04-08T13:23:08.975Z,38.34
2023-04-08T13:25:38.289Z,38.74
2023-04-08T13:28:06.260Z,38.96
2023-04-08T13:30:34.176Z,39.16
2023-04-08T13:33:02.205Z,39.49
2023-04-08T13:35:30.250Z,39.88
2023-04-08T13:37:58.295Z,40.47
2023-04-08T13:40:27.095Z,41.03
2023-04-08T13:42:56.828Z,40.96
2023-04-08T13:45:24.938Z,41.27
2023-04-08T13:47:52.939Z,40.57
2023-04-08T13:50:21.090Z,40.03
2023-04-08T13:52:49.033Z,39.81
2023-04-08T13:55:17.454Z,39.77
2023-04-08T13:57:48.416Z,39.73
2023-04-08T14:00:18.118Z,39.76
2023-04-08T14:02:46.244Z,39.94
2023-04-08T14:05:14.316Z,39.88
2023-04-08T14:07:42.282Z,39.64
2023-04-08T14:10:11.406Z,39.64
2023-04-08T14:12:39.398Z,39.45
2023-04-08T14:15:08.629Z,40.06
2023-04-08T14:17:38.037Z,40.75
2023-04-08T14:20:07.434Z,41.35
2023-04-08T14:22:35.440Z,41.52
2023-04-08T14:25:03.532Z,40.82
2023-04-08T14:27:31.464Z,41.17
2023-04-08T14:29:59.430Z,40.49
2023-04-08T14:32:27.385Z,40.78
2023-04-08T14:34:56.691Z,40.44
2023-04-08T14:37:27.434Z,40.84
2023-04-08T14:39:55.409Z,40.51
2023-04-08T14:42:25.874Z,40.72
2023-04-08T14:44:53.794Z,40.95
2023-04-08T14:47:21.728Z,41.64
2023-04-08T14:49:49.798Z,41.33
2023-04-08T14:52:19.114Z,41.44
2023-04-08T14:54:48.044Z,41.23
2023-04-08T14:57:16.719Z,40.46
2023-04-08T14:59:44.990Z,40.21
2023-04-08T15:02:12.949Z,40.43
2023-04-08T15:04:41.402Z,42.08
2023-04-08T15:07:09.651Z,43.70
2023-04-08T15:09:38.965Z,41.84
2023-04-08T15:12:07.177Z,41.75
2023-04-08T15:14:35.214Z,42.51
2023-04-08T15:17:03.177Z,42.78
2023-04-08T15:19:31.117Z,42.76
2023-04-08T15:21:59.081Z,42.70
2023-04-08T15:24:27.027Z,42.41
2023-04-08T15:26:56.321Z,42.63
2023-04-08T15:29:24.644Z,42.70
2023-04-08T15:31:52.793Z,42.57
2023-04-08T15:34:22.715Z,42.80
2023-04-08T15:36:50.709Z,42.72
2023-04-08T15:39:18.637Z,42.83
2023-04-08T15:41:46.900Z,43.22
2023-04-08T15:44:16.673Z,42.89
2023-04-08T15:46:44.675Z,43.26
2023-04-08T15:49:12.746Z,42.90
2023-04-08T15:51:44.388Z,43.61
2023-04-08T15:54:12.380Z,44.39
2023-04-08T15:56:40.743Z,44.30
2023-04-08T15:59:08.729Z,44.07
2023-04-08T16:01:38.147Z,44.02
2023-04-08T16:04:07.247Z,43.84
2023-04-08T16:06:35.410Z,44.31
2023-04-08T16:09:03.414Z,44.37
2023-04-08T16:11:31.630Z,44.05
2023-04-08T16:13:59.524Z,43.80
2023-04-08T16:16:27.513Z,44.15
2023-04-08T16:18:56.796Z,43.91
2023-04-08T16:21:24.814Z,43.61
2023-04-08T16:23:53.073Z,43.75
2023-04-08T16:26:22.069Z,43.91
2023-04-08T16:28:50.204Z,43.71
2023-04-08T16:31:18.967Z,43.98
2023-04-08T16:33:48.108Z,43.86
2023-04-08T16:36:17.574Z,43.92
2023-04-08T16:38:45.785Z,43.92
2023-04-08T16:41:13.714Z,43.97
2023-04-08T16:43:41.660Z,44.38
2023-04-08T16:46:13.490Z,44.58
2023-04-08T16:48:42.038Z,45.67
2023-04-08T16:51:10.010Z,45.46
2023-04-08T16:53:39.639Z,44.63
2023-04-08T16:56:14.753Z,44.99
2023-04-08T16:58:43.183Z,44.41
2023-04-08T17:01:14.164Z,44.37
2023-04-08T17:03:42.347Z,44.37
2023-04-08T17:06:11.957Z,44.49
2023-04-08T17:08:43.456Z,44.38
2023-04-08T17:11:13.357Z,44.33
2023-04-08T17:13:47.904Z,44.35
2023-04-08T17:16:17.190Z,44.44
2023-04-08T17:18:46.378Z,44.42
2023-04-08T17:21:15.678Z,44.30
2023-04-08T17:23:45.045Z,44.40
2023-04-08T17:26:13.390Z,44.45
2023-04-08T17:28:43.459Z,44.50
2023-04-08T17:31:11.916Z,44.55
2023-04-08T17:33:39.813Z,44.50
2023-04-08T17:36:08.260Z,44.43
2023-04-08T17:38:39.720Z,44.55
2023-04-08T17:41:13.400Z,44.51
2023-04-08T17:43:43.023Z,44.61
2023-04-08T17:46:11.153Z,44.67
2023-04-08T17:48:39.150Z,44.72
2023-04-08T17:51:07.824Z,44.64
2023-04-08T17:53:36.056Z,44.60
2023-04-08T17:56:05.411Z,44.70
2023-04-08T17:58:34.779Z,44.83
2023-04-08T18:01:02.711Z,45.00
2023-04-08T18:03:33.518Z,44.81
2023-04-08T18:06:02.046Z,44.61
2023-04-08T18:08:30.015Z,44.93
2023-04-08T18:10:57.902Z,45.02
2023-04-08T18:13:25.963Z,44.97
2023-04-08T18:15:55.222Z,45.12
2023-04-08T18:18:24.932Z,45.03
2023-04-08T18:20:52.836Z,44.79
2023-04-08T18:23:21.374Z,44.79
2023-04-08T18:25:51.531Z,44.61
2023-04-08T18:28:19.475Z,44.77
2023-04-08T18:30:52.053Z,44.84
2023-04-08T18:33:21.685Z,44.65
2023-04-08T18:35:49.718Z,44.81
2023-04-08T18:38:17.678Z,44.73
2023-04-08T18:40:46.029Z,44.57
2023-04-08T18:43:14.829Z,44.74
2023-04-08T18:45:42.854Z,44.73
2023-04-08T18:48:12.321Z,44.75
2023-04-08T18:50:41.702Z,44.68
2023-04-08T18:53:09.668Z,44.81
2023-04-08T18:55:42.045Z,44.67
2023-04-08T18:58:09.953Z,44.69
2023-04-08T19:00:39.654Z,44.83
2023-04-08T19:03:09.881Z,44.68
2023-04-08T19:05:38.471Z,44.78
2023-04-08T19:08:07.864Z,44.67
2023-04-08T19:10:36.121Z,44.49
2023-04-08T19:13:04.098Z,44.59
2023-04-08T19:15:32.467Z,44.67
2023-04-08T19:18:00.723Z,44.46
2023-04-08T19:20:31.979Z,44.76
2023-04-08T19:23:00.244Z,44.76
2023-04-08T19:25:29.570Z,44.53
2023-04-08T19:27:57.704Z,44.71
2023-04-08T19:30:27.933Z,44.72
2023-04-08T19:32:55.883Z,44.56
2023-04-08T19:35:24.053Z,44.56
2023-04-08T19:37:51.951Z,44.41
2023-04-08T19:40:20.622Z,44.38
2023-04-08T19:42:50.275Z,44.37
2023-04-08T19:45:18.351Z,44.58
2023-04-08T19:47:49.220Z,44.60
2023-04-08T19:50:17.178Z,44.37
2023-04-08T19:52:45.109Z,44.09
2023-04-08T19:55:15.174Z,44.15
2023-04-08T19:57:43.393Z,44.17
2023-04-08T20:00:14.395Z,44.16
2023-04-08T20:02:42.633Z,44.16
2023-04-08T20:05:14.898Z,44.10
2023-04-08T20:07:42.923Z,44.08
2023-04-08T20:10:12.345Z,43.97
2023-04-08T20:12:40.907Z,43.94
2023-04-08T20:15:22.837Z,43.94
2023-04-08T20:17:53.917Z,43.94
2023-04-08T20:20:22.752Z,44.07
2023-04-08T20:22:50.833Z,44.00
2023-04-08T20:25:18.872Z,44.24
2023-04-08T20:27:47.036Z,43.92
2023-04-08T20:30:15.006Z,44.11
2023-04-08T20:32:43.258Z,43.86
2023-04-08T20:35:13.405Z,43.56
2023-04-08T20:37:41.601Z,43.50
2023-04-08T20:40:10.593Z,43.63
2023-04-08T20:42:38.697Z,43.50
2023-04-08T20:45:07.790Z,43.44
2023-04-08T20:47:35.886Z,43.60
2023-04-08T20:50:04.174Z,43.39
2023-04-08T20:52:34.217Z,43.59
2023-04-08T20:55:02.169Z,43.50
2023-04-08T20:57:30.038Z,43.41
2023-04-08T20:59:58.027Z,43.37
2023-04-08T21:02:26.216Z,43.41
2023-04-08T21:04:54.427Z,43.58
2023-04-08T21:07:22.311Z,43.52
2023-04-08T21:09:51.583Z,44.29
2023-04-08T21:12:19.540Z,44.18
2023-04-08T21:14:47.507Z,44.04
2023-04-08T21:17:15.388Z,44.03
2023-04-08T21:19:43.412Z,43.89
2023-04-08T21:22:11.351Z,44.07
2023-04-08T21:24:39.368Z,44.08
2023-04-08T21:27:08.729Z,43.92
2023-04-08T21:29:36.592Z,43.76
2023-04-08T21:32:04.542Z,43.85
2023-04-08T21:34:35.027Z,43.92
2023-04-08T21:37:02.943Z,43.78
2023-04-08T21:39:30.854Z,43.75
2023-04-08T21:41:58.793Z,43.88
2023-04-08T21:44:28.160Z,43.69
2023-04-08T21:46:56.210Z,43.59
2023-04-08T21:49:24.388Z,44.00
2023-04-08T21:51:52.251Z,44.64
2023-04-08T21:54:23.102Z,44.57
2023-04-08T21:56:51.065Z,44.05
2023-04-08T21:59:19.193Z,44.03
2023-04-08T22:01:48.662Z,43.88
2023-04-08T22:04:19.760Z,43.79
2023-04-08T22:06:51.226Z,43.68
2023-04-08T22:09:19.470Z,43.70
2023-04-08T22:11:47.534Z,43.68
2023-04-08T22:14:17.370Z,43.70
2023-04-08T22:16:45.826Z,43.71
2023-04-08T22:19:15.552Z,43.70
2023-04-08T22:21:43.503Z,43.67
2023-04-08T22:24:11.523Z,43.62
2023-04-08T22:26:39.491Z,43.52
2023-04-08T22:29:07.490Z,43.81
2023-04-08T22:31:35.620Z,43.55
2023-04-08T22:34:03.632Z,43.54
2023-04-08T22:36:33.216Z,43.59
2023-04-08T22:39:01.219Z,43.33
2023-04-08T22:41:31.683Z,43.52
2023-04-08T22:43:59.564Z,43.58
2023-04-08T22:46:27.570Z,43.46
2023-04-08T22:48:58.182Z,43.26
2023-04-08T22:51:28.924Z,43.46
2023-04-08T22:53:58.239Z,43.24
2023-04-08T22:56:26.401Z,43.41
2023-04-08T22:58:54.393Z,43.34
2023-04-08T23:01:25.437Z,43.33
2023-04-08T23:03:53.406Z,43.14
2023-04-08T23:06:21.319Z,43.19
2023-04-08T23:08:49.292Z,43.18
2023-04-08T23:11:18.600Z,43.05
2023-04-08T23:13:46.524Z,43.17
2023-04-08T23:16:14.467Z,43.12
2023-04-08T23:18:42.476Z,42.96
2023-04-08T23:21:10.416Z,42.95
2023-04-08T23:23:38.361Z,43.06
2023-04-08T23:26:06.544Z,42.98
2023-04-08T23:28:36.073Z,42.95
2023-04-08T23:31:05.718Z,42.80
2023-04-08T23:33:33.687Z,42.81
2023-04-08T23:36:01.622Z,42.86
2023-04-08T23:38:32.670Z,42.93
2023-04-08T23:41:01.325Z,42.82
2023-04-08T23:43:29.245Z,42.83
2023-04-08T23:45:58.586Z,42.92
2023-04-08T23:48:29.395Z,42.79
2023-04-08T23:50:57.478Z,42.83
2023-04-08T23:53:25.538Z,42.89
2023-04-08T23:55:53.455Z,42.75
2023-04-08T23:58:21.475Z,42.71
